17 Oct 2018 12:42 CDT 2018290+12:42 CDT

Overview Datums Bench Marks Data Query Site Visit Daily QC Messages Attributes

079: SALT08

27° 52' 14" N   97° 31' 3" W
SALT08
City of Corpus Christi Salinity Monitoring Salinity

Station Information

SALT08
SALT08
more pictures
 
Station Name:SALT08
DNR ID:079
Location:27° 52' 14" N, 97° 31' 3" W

Water Level Forecasts

Latest Observations

Series Metric English Marine Observed at
Water Temperature 14.8 °C 58.6 °F 58.6 °F Oct 17 07:30 CDT
00h07m ago
Salinity 3.700 psu 3.700 psu 3.700 psu Oct 17 07:30 CDT
00h07m ago

Maps

SALT08
All Stations in Area
Entire Network
 

Recent Observations

Date/Time Water
Temp (°F)
Sal (psu)
Oct 17 07:00 CDT 59.2 3.800
Oct 17 06:00 CDT 58.8 3.700
Oct 17 05:00 CDT 58.6 3.700
Oct 17 04:00 CDT 58.8 3.700
Oct 17 03:00 CDT 58.8 3.700
Oct 17 02:00 CDT 59.0 3.800
Oct 17 01:00 CDT 58.8 3.300
Oct 17 00:00 CDT 59.0 3.200
Oct 16 23:00 CDT 59.0 3.600
Oct 16 22:00 CDT 59.4 3.500
Oct 16 21:00 CDT 59.5 3.500
Oct 16 20:00 CDT 59.9 3.600
Oct 16 19:00 CDT 59.9 3.800
Oct 16 18:00 CDT 60.1 3.900
Oct 16 17:00 CDT 60.1 3.900
Oct 16 16:00 CDT 60.3 3.600
Oct 16 15:00 CDT 59.9 3.700
Oct 16 14:00 CDT 59.9 3.500
Oct 16 13:00 CDT 59.7 3.200
Oct 16 12:00 CDT 59.7 3.000
Oct 16 11:00 CDT 59.5 3.100
Oct 16 10:00 CDT 59.9 3.400
Oct 16 09:00 CDT 60.6 3.600
Oct 16 08:00 CDT 60.3 3.100
Oct 16 07:00 CDT 60.3 3.500

Historical Data Availability